sensor_id;sensor_type;location;lat;lon;timestamp;P1;durP1;ratioP1;P2;durP2;ratioP2
25511;SDS011;13414;44.534;18.700;2023-07-31T00:00:50;11.68;;;7.55;;
25511;SDS011;13414;44.534;18.700;2023-07-31T00:03:17;9.68;;;7.82;;
25511;SDS011;13414;44.534;18.700;2023-07-31T00:05:45;10.55;;;7.78;;
25511;SDS011;13414;44.534;18.700;2023-07-31T00:08:12;9.80;;;7.90;;
25511;SDS011;13414;44.534;18.700;2023-07-31T00:10:39;9.13;;;8.10;;
25511;SDS011;13414;44.534;18.700;2023-07-31T00:13:07;12.10;;;7.72;;
25511;SDS011;13414;44.534;18.700;2023-07-31T00:15:34;12.07;;;7.95;;
25511;SDS011;13414;44.534;18.700;2023-07-31T00:18:03;9.52;;;7.70;;
25511;SDS011;13414;44.534;18.700;2023-07-31T00:20:30;9.02;;;8.02;;
25511;SDS011;13414;44.534;18.700;2023-07-31T00:22:57;9.13;;;7.55;;
25511;SDS011;13414;44.534;18.700;2023-07-31T00:25:25;10.55;;;8.40;;
25511;SDS011;13414;44.534;18.700;2023-07-31T00:27:52;9.65;;;8.45;;
25511;SDS011;13414;44.534;18.700;2023-07-31T00:30:19;9.82;;;8.32;;
25511;SDS011;13414;44.534;18.700;2023-07-31T00:32:47;9.77;;;7.65;;
25511;SDS011;13414;44.534;18.700;2023-07-31T00:35:16;9.45;;;8.00;;
25511;SDS011;13414;44.534;18.700;2023-07-31T00:37:43;9.68;;;7.97;;
25511;SDS011;13414;44.534;18.700;2023-07-31T00:40:11;9.85;;;7.85;;
25511;SDS011;13414;44.534;18.700;2023-07-31T00:42:39;9.10;;;7.85;;
25511;SDS011;13414;44.534;18.700;2023-07-31T00:45:07;9.43;;;8.00;;
25511;SDS011;13414;44.534;18.700;2023-07-31T00:47:35;14.98;;;8.52;;
25511;SDS011;13414;44.534;18.700;2023-07-31T00:50:02;12.13;;;8.70;;
25511;SDS011;13414;44.534;18.700;2023-07-31T00:52:32;10.65;;;8.27;;
25511;SDS011;13414;44.534;18.700;2023-07-31T00:55:01;9.98;;;8.10;;
25511;SDS011;13414;44.534;18.700;2023-07-31T00:57:29;9.13;;;7.82;;
25511;SDS011;13414;44.534;18.700;2023-07-31T00:59:58;8.07;;;7.00;;
25511;SDS011;13414;44.534;18.700;2023-07-31T01:02:25;9.10;;;7.55;;
25511;SDS011;13414;44.534;18.700;2023-07-31T01:04:53;11.60;;;7.32;;
25511;SDS011;13414;44.534;18.700;2023-07-31T01:07:22;8.75;;;7.32;;
25511;SDS011;13414;44.534;18.700;2023-07-31T01:09:59;8.65;;;7.53;;
25511;SDS011;13414;44.534;18.700;2023-07-31T01:12:31;10.82;;;7.80;;
25511;SDS011;13414;44.534;18.700;2023-07-31T01:15:02;10.60;;;8.55;;
25511;SDS011;13414;44.534;18.700;2023-07-31T01:17:30;9.73;;;8.73;;
25511;SDS011;13414;44.534;18.700;2023-07-31T01:19:59;14.40;;;11.57;;
25511;SDS011;13414;44.534;18.700;2023-07-31T01:22:31;10.98;;;8.00;;
25511;SDS011;13414;44.534;18.700;2023-07-31T01:27:56;9.57;;;8.50;;
25511;SDS011;13414;44.534;18.700;2023-07-31T01:33:01;9.73;;;8.73;;
25511;SDS011;13414;44.534;18.700;2023-07-31T01:35:32;12.50;;;9.50;;
25511;SDS011;13414;44.534;18.700;2023-07-31T01:38:00;11.00;;;8.18;;
25511;SDS011;13414;44.534;18.700;2023-07-31T01:40:27;9.35;;;8.13;;
25511;SDS011;13414;44.534;18.700;2023-07-31T01:42:56;11.10;;;8.63;;
25511;SDS011;13414;44.534;18.700;2023-07-31T01:45:24;10.10;;;8.55;;
25511;SDS011;13414;44.534;18.700;2023-07-31T01:47:52;12.40;;;8.52;;
25511;SDS011;13414;44.534;18.700;2023-07-31T01:50:19;11.02;;;8.55;;
25511;SDS011;13414;44.534;18.700;2023-07-31T01:52:47;11.38;;;9.18;;
25511;SDS011;13414;44.534;18.700;2023-07-31T01:55:14;9.85;;;8.85;;
25511;SDS011;13414;44.534;18.700;2023-07-31T01:57:42;12.02;;;8.55;;
25511;SDS011;13414;44.534;18.700;2023-07-31T02:00:11;13.05;;;8.52;;
25511;SDS011;13414;44.534;18.700;2023-07-31T02:02:39;11.68;;;8.57;;
25511;SDS011;13414;44.534;18.700;2023-07-31T02:05:06;13.65;;;8.63;;
25511;SDS011;13414;44.534;18.700;2023-07-31T02:07:34;12.20;;;7.93;;
25511;SDS011;13414;44.534;18.700;2023-07-31T02:10:02;12.73;;;8.80;;
25511;SDS011;13414;44.534;18.700;2023-07-31T02:12:29;13.23;;;9.07;;
25511;SDS011;13414;44.534;18.700;2023-07-31T02:14:59;12.57;;;9.32;;
25511;SDS011;13414;44.534;18.700;2023-07-31T02:17:29;12.73;;;10.07;;
25511;SDS011;13414;44.534;18.700;2023-07-31T02:19:56;15.88;;;10.60;;
25511;SDS011;13414;44.534;18.700;2023-07-31T02:22:24;24.80;;;14.68;;
25511;SDS011;13414;44.534;18.700;2023-07-31T02:24:51;31.25;;;15.45;;
25511;SDS011;13414;44.534;18.700;2023-07-31T02:27:21;27.67;;;14.57;;
25511;SDS011;13414;44.534;18.700;2023-07-31T02:29:52;28.73;;;14.55;;
25511;SDS011;13414;44.534;18.700;2023-07-31T02:32:20;31.52;;;15.40;;
25511;SDS011;13414;44.534;18.700;2023-07-31T02:34:49;30.50;;;15.75;;
25511;SDS011;13414;44.534;18.700;2023-07-31T02:37:17;27.73;;;14.85;;
25511;SDS011;13414;44.534;18.700;2023-07-31T02:39:45;22.20;;;12.73;;
25511;SDS011;13414;44.534;18.700;2023-07-31T02:42:13;23.33;;;12.50;;
25511;SDS011;13414;44.534;18.700;2023-07-31T02:44:40;29.98;;;14.55;;
25511;SDS011;13414;44.534;18.700;2023-07-31T02:47:09;27.75;;;14.50;;
25511;SDS011;13414;44.534;18.700;2023-07-31T02:49:36;27.83;;;16.13;;
25511;SDS011;13414;44.534;18.700;2023-07-31T02:52:06;32.42;;;16.98;;
25511;SDS011;13414;44.534;18.700;2023-07-31T02:54:33;38.10;;;18.75;;
25511;SDS011;13414;44.534;18.700;2023-07-31T02:57:01;48.50;;;20.48;;
25511;SDS011;13414;44.534;18.700;2023-07-31T02:59:29;41.70;;;20.17;;
25511;SDS011;13414;44.534;18.700;2023-07-31T03:01:56;41.63;;;20.48;;
25511;SDS011;13414;44.534;18.700;2023-07-31T03:04:25;55.10;;;22.30;;
25511;SDS011;13414;44.534;18.700;2023-07-31T03:06:52;64.72;;;23.17;;
25511;SDS011;13414;44.534;18.700;2023-07-31T03:09:21;62.38;;;23.92;;
25511;SDS011;13414;44.534;18.700;2023-07-31T03:11:48;56.83;;;27.08;;
25511;SDS011;13414;44.534;18.700;2023-07-31T03:14:16;57.83;;;25.48;;
25511;SDS011;13414;44.534;18.700;2023-07-31T03:16:43;48.45;;;23.20;;
25511;SDS011;13414;44.534;18.700;2023-07-31T03:19:11;42.78;;;22.20;;
25511;SDS011;13414;44.534;18.700;2023-07-31T03:21:38;38.20;;;22.42;;
25511;SDS011;13414;44.534;18.700;2023-07-31T03:24:05;32.45;;;21.90;;
25511;SDS011;13414;44.534;18.700;2023-07-31T03:26:34;47.10;;;24.30;;
25511;SDS011;13414;44.534;18.700;2023-07-31T03:29:02;33.85;;;20.85;;
25511;SDS011;13414;44.534;18.700;2023-07-31T03:31:30;30.30;;;20.90;;
25511;SDS011;13414;44.534;18.700;2023-07-31T03:33:57;25.02;;;19.75;;
25511;SDS011;13414;44.534;18.700;2023-07-31T03:36:26;30.02;;;21.58;;
25511;SDS011;13414;44.534;18.700;2023-07-31T03:38:53;28.70;;;20.85;;
25511;SDS011;13414;44.534;18.700;2023-07-31T03:41:21;28.88;;;20.65;;
25511;SDS011;13414;44.534;18.700;2023-07-31T03:43:50;35.35;;;20.10;;
25511;SDS011;13414;44.534;18.700;2023-07-31T03:46:18;30.33;;;18.55;;
25511;SDS011;13414;44.534;18.700;2023-07-31T03:48:48;23.98;;;17.77;;
25511;SDS011;13414;44.534;18.700;2023-07-31T03:51:15;21.02;;;17.02;;
25511;SDS011;13414;44.534;18.700;2023-07-31T03:53:43;25.85;;;16.73;;
25511;SDS011;13414;44.534;18.700;2023-07-31T03:56:11;24.15;;;16.50;;
25511;SDS011;13414;44.534;18.700;2023-07-31T03:58:38;21.23;;;16.55;;
25511;SDS011;13414;44.534;18.700;2023-07-31T04:01:07;22.48;;;17.08;;
25511;SDS011;13414;44.534;18.700;2023-07-31T04:03:34;19.10;;;16.60;;
25511;SDS011;13414;44.534;18.700;2023-07-31T04:06:02;18.90;;;14.63;;
25511;SDS011;13414;44.534;18.700;2023-07-31T04:08:29;22.48;;;13.77;;
25511;SDS011;13414;44.534;18.700;2023-07-31T04:10:57;17.63;;;11.85;;
25511;SDS011;13414;44.534;18.700;2023-07-31T04:13:24;16.60;;;11.73;;
25511;SDS011;13414;44.534;18.700;2023-07-31T04:15:53;18.70;;;11.10;;
25511;SDS011;13414;44.534;18.700;2023-07-31T04:18:24;15.70;;;10.80;;
25511;SDS011;13414;44.534;18.700;2023-07-31T04:20:52;16.15;;;10.95;;
25511;SDS011;13414;44.534;18.700;2023-07-31T04:23:19;16.17;;;11.15;;
25511;SDS011;13414;44.534;18.700;2023-07-31T04:25:47;16.08;;;10.82;;
25511;SDS011;13414;44.534;18.700;2023-07-31T04:28:14;19.83;;;12.50;;
25511;SDS011;13414;44.534;18.700;2023-07-31T04:30:42;20.65;;;13.48;;
25511;SDS011;13414;44.534;18.700;2023-07-31T04:33:09;17.20;;;13.43;;
25511;SDS011;13414;44.534;18.700;2023-07-31T04:35:38;23.35;;;14.68;;
25511;SDS011;13414;44.534;18.700;2023-07-31T04:38:06;30.05;;;14.95;;
25511;SDS011;13414;44.534;18.700;2023-07-31T04:40:34;19.15;;;13.48;;
25511;SDS011;13414;44.534;18.700;2023-07-31T04:43:01;17.67;;;12.35;;
25511;SDS011;13414;44.534;18.700;2023-07-31T04:45:28;18.45;;;13.07;;
25511;SDS011;13414;44.534;18.700;2023-07-31T04:47:56;19.88;;;12.68;;
25511;SDS011;13414;44.534;18.700;2023-07-31T04:50:23;20.55;;;14.18;;
25511;SDS011;13414;44.534;18.700;2023-07-31T04:52:52;22.73;;;15.25;;
25511;SDS011;13414;44.534;18.700;2023-07-31T04:55:20;22.40;;;16.60;;
25511;SDS011;13414;44.534;18.700;2023-07-31T04:57:47;22.70;;;16.20;;
25511;SDS011;13414;44.534;18.700;2023-07-31T05:00:15;27.80;;;17.00;;
25511;SDS011;13414;44.534;18.700;2023-07-31T05:02:43;28.52;;;17.13;;
25511;SDS011;13414;44.534;18.700;2023-07-31T05:05:10;30.60;;;18.05;;
25511;SDS011;13414;44.534;18.700;2023-07-31T05:07:37;32.47;;;18.75;;
25511;SDS011;13414;44.534;18.700;2023-07-31T05:10:07;35.70;;;19.77;;
25511;SDS011;13414;44.534;18.700;2023-07-31T05:12:35;35.15;;;18.73;;
25511;SDS011;13414;44.534;18.700;2023-07-31T05:15:02;31.48;;;19.05;;
25511;SDS011;13414;44.534;18.700;2023-07-31T05:17:30;31.98;;;18.85;;
25511;SDS011;13414;44.534;18.700;2023-07-31T05:19:58;38.53;;;19.85;;
25511;SDS011;13414;44.534;18.700;2023-07-31T05:22:25;35.47;;;19.40;;
25511;SDS011;13414;44.534;18.700;2023-07-31T05:24:53;33.78;;;19.27;;
25511;SDS011;13414;44.534;18.700;2023-07-31T05:27:22;33.92;;;20.27;;
25511;SDS011;13414;44.534;18.700;2023-07-31T05:29:49;32.97;;;18.77;;
25511;SDS011;13414;44.534;18.700;2023-07-31T05:32:17;31.52;;;18.70;;
25511;SDS011;13414;44.534;18.700;2023-07-31T05:34:44;32.63;;;19.02;;
25511;SDS011;13414;44.534;18.700;2023-07-31T05:37:11;32.40;;;18.88;;
25511;SDS011;13414;44.534;18.700;2023-07-31T05:39:39;34.42;;;18.42;;
25511;SDS011;13414;44.534;18.700;2023-07-31T05:42:06;39.47;;;24.55;;
25511;SDS011;13414;44.534;18.700;2023-07-31T05:44:35;38.85;;;25.42;;
25511;SDS011;13414;44.534;18.700;2023-07-31T05:47:03;32.53;;;19.55;;
25511;SDS011;13414;44.534;18.700;2023-07-31T05:49:31;36.25;;;20.75;;
25511;SDS011;13414;44.534;18.700;2023-07-31T05:51:58;43.40;;;25.70;;
25511;SDS011;13414;44.534;18.700;2023-07-31T05:54:26;47.30;;;30.52;;
25511;SDS011;13414;44.534;18.700;2023-07-31T05:56:53;41.88;;;29.58;;
25511;SDS011;13414;44.534;18.700;2023-07-31T05:59:21;40.08;;;29.02;;
25511;SDS011;13414;44.534;18.700;2023-07-31T06:01:50;35.97;;;24.90;;
25511;SDS011;13414;44.534;18.700;2023-07-31T06:04:17;33.28;;;23.90;;
25511;SDS011;13414;44.534;18.700;2023-07-31T06:06:45;30.45;;;22.88;;
25511;SDS011;13414;44.534;18.700;2023-07-31T06:09:12;27.17;;;21.83;;
25511;SDS011;13414;44.534;18.700;2023-07-31T06:11:40;28.13;;;21.50;;
25511;SDS011;13414;44.534;18.700;2023-07-31T06:14:09;24.20;;;20.00;;
25511;SDS011;13414;44.534;18.700;2023-07-31T06:16:37;24.92;;;19.60;;
25511;SDS011;13414;44.534;18.700;2023-07-31T06:19:08;23.95;;;19.27;;
25511;SDS011;13414;44.534;18.700;2023-07-31T06:21:36;23.63;;;19.15;;
25511;SDS011;13414;44.534;18.700;2023-07-31T06:24:04;19.45;;;17.08;;
25511;SDS011;13414;44.534;18.700;2023-07-31T06:26:32;21.02;;;17.00;;
25511;SDS011;13414;44.534;18.700;2023-07-31T06:28:59;27.58;;;22.48;;
25511;SDS011;13414;44.534;18.700;2023-07-31T06:31:27;21.40;;;15.90;;
25511;SDS011;13414;44.534;18.700;2023-07-31T06:33:55;24.35;;;16.95;;
25511;SDS011;13414;44.534;18.700;2023-07-31T06:36:26;22.83;;;19.13;;
25511;SDS011;13414;44.534;18.700;2023-07-31T06:38:54;16.23;;;12.93;;
25511;SDS011;13414;44.534;18.700;2023-07-31T06:41:21;16.52;;;13.00;;
25511;SDS011;13414;44.534;18.700;2023-07-31T06:43:49;15.63;;;12.80;;
25511;SDS011;13414;44.534;18.700;2023-07-31T06:46:16;19.88;;;15.10;;
25511;SDS011;13414;44.534;18.700;2023-07-31T06:48:44;18.45;;;13.45;;
25511;SDS011;13414;44.534;18.700;2023-07-31T06:51:11;20.50;;;16.02;;
25511;SDS011;13414;44.534;18.700;2023-07-31T06:53:40;18.60;;;13.18;;
25511;SDS011;13414;44.534;18.700;2023-07-31T06:56:10;15.68;;;10.32;;
25511;SDS011;13414;44.534;18.700;2023-07-31T06:58:38;17.70;;;11.07;;
25511;SDS011;13414;44.534;18.700;2023-07-31T07:01:05;14.70;;;11.65;;
25511;SDS011;13414;44.534;18.700;2023-07-31T07:03:33;11.55;;;9.10;;
25511;SDS011;13414;44.534;18.700;2023-07-31T07:06:00;13.23;;;9.82;;
25511;SDS011;13414;44.534;18.700;2023-07-31T07:08:28;12.98;;;8.68;;
25511;SDS011;13414;44.534;18.700;2023-07-31T07:10:57;11.77;;;9.45;;
25511;SDS011;13414;44.534;18.700;2023-07-31T07:13:24;10.38;;;7.15;;
25511;SDS011;13414;44.534;18.700;2023-07-31T07:15:52;5.55;;;3.80;;
25511;SDS011;13414;44.534;18.700;2023-07-31T07:18:19;5.07;;;3.70;;
25511;SDS011;13414;44.534;18.700;2023-07-31T07:20:48;5.43;;;3.08;;
25511;SDS011;13414;44.534;18.700;2023-07-31T07:23:17;5.60;;;4.28;;
25511;SDS011;13414;44.534;18.700;2023-07-31T07:25:44;4.00;;;3.38;;
25511;SDS011;13414;44.534;18.700;2023-07-31T07:28:13;5.25;;;2.83;;
25511;SDS011;13414;44.534;18.700;2023-07-31T07:30:42;4.82;;;2.92;;
25511;SDS011;13414;44.534;18.700;2023-07-31T07:33:09;5.65;;;3.03;;
25511;SDS011;13414;44.534;18.700;2023-07-31T07:35:37;4.85;;;2.90;;
25511;SDS011;13414;44.534;18.700;2023-07-31T07:38:05;5.60;;;2.70;;
25511;SDS011;13414;44.534;18.700;2023-07-31T07:40:32;4.80;;;3.00;;
25511;SDS011;13414;44.534;18.700;2023-07-31T07:43:04;4.88;;;2.90;;
25511;SDS011;13414;44.534;18.700;2023-07-31T07:45:33;6.57;;;4.32;;
25511;SDS011;13414;44.534;18.700;2023-07-31T07:48:00;5.53;;;3.22;;
25511;SDS011;13414;44.534;18.700;2023-07-31T07:50:28;5.82;;;2.80;;
25511;SDS011;13414;44.534;18.700;2023-07-31T07:52:56;4.95;;;3.70;;
25511;SDS011;13414;44.534;18.700;2023-07-31T07:55:24;5.97;;;3.05;;
25511;SDS011;13414;44.534;18.700;2023-07-31T07:57:51;5.10;;;3.78;;
25511;SDS011;13414;44.534;18.700;2023-07-31T08:00:19;4.15;;;2.65;;
25511;SDS011;13414;44.534;18.700;2023-07-31T08:02:47;5.97;;;3.55;;
25511;SDS011;13414;44.534;18.700;2023-07-31T08:05:15;6.07;;;3.80;;
25511;SDS011;13414;44.534;18.700;2023-07-31T08:07:43;5.95;;;3.40;;
25511;SDS011;13414;44.534;18.700;2023-07-31T08:10:10;6.00;;;4.25;;
25511;SDS011;13414;44.534;18.700;2023-07-31T08:12:38;4.57;;;2.65;;
25511;SDS011;13414;44.534;18.700;2023-07-31T08:15:06;3.80;;;2.70;;
25511;SDS011;13414;44.534;18.700;2023-07-31T08:17:34;3.15;;;2.25;;
25511;SDS011;13414;44.534;18.700;2023-07-31T08:20:03;3.45;;;2.63;;
25511;SDS011;13414;44.534;18.700;2023-07-31T08:22:31;4.05;;;2.45;;
25511;SDS011;13414;44.534;18.700;2023-07-31T08:24:58;4.18;;;2.45;;
25511;SDS011;13414;44.534;18.700;2023-07-31T08:27:26;3.70;;;2.78;;
25511;SDS011;13414;44.534;18.700;2023-07-31T08:29:53;4.05;;;2.78;;
25511;SDS011;13414;44.534;18.700;2023-07-31T08:32:21;2.58;;;1.67;;
25511;SDS011;13414;44.534;18.700;2023-07-31T08:34:48;3.88;;;1.45;;
25511;SDS011;13414;44.534;18.700;2023-07-31T08:37:17;3.60;;;1.60;;
25511;SDS011;13414;44.534;18.700;2023-07-31T08:39:44;2.92;;;1.73;;
25511;SDS011;13414;44.534;18.700;2023-07-31T08:42:12;3.10;;;1.65;;
25511;SDS011;13414;44.534;18.700;2023-07-31T08:44:39;3.85;;;1.92;;
25511;SDS011;13414;44.534;18.700;2023-07-31T08:47:07;3.00;;;1.90;;
25511;SDS011;13414;44.534;18.700;2023-07-31T08:49:35;5.00;;;2.60;;
25511;SDS011;13414;44.534;18.700;2023-07-31T08:52:05;3.45;;;1.80;;
25511;SDS011;13414;44.534;18.700;2023-07-31T08:54:35;6.13;;;4.07;;
25511;SDS011;13414;44.534;18.700;2023-07-31T08:57:02;3.65;;;1.80;;
25511;SDS011;13414;44.534;18.700;2023-07-31T08:59:34;5.05;;;2.95;;
25511;SDS011;13414;44.534;18.700;2023-07-31T09:02:03;4.15;;;3.03;;
25511;SDS011;13414;44.534;18.700;2023-07-31T09:04:33;6.63;;;3.28;;
25511;SDS011;13414;44.534;18.700;2023-07-31T09:07:09;6.38;;;3.97;;
25511;SDS011;13414;44.534;18.700;2023-07-31T09:09:40;3.40;;;2.10;;
25511;SDS011;13414;44.534;18.700;2023-07-31T09:12:08;5.20;;;2.70;;
25511;SDS011;13414;44.534;18.700;2023-07-31T09:14:38;4.07;;;2.95;;
25511;SDS011;13414;44.534;18.700;2023-07-31T09:17:07;6.63;;;3.95;;
25511;SDS011;13414;44.534;18.700;2023-07-31T09:19:35;3.45;;;2.35;;
25511;SDS011;13414;44.534;18.700;2023-07-31T09:22:03;4.95;;;2.25;;
25511;SDS011;13414;44.534;18.700;2023-07-31T09:24:32;4.32;;;2.95;;
25511;SDS011;13414;44.534;18.700;2023-07-31T09:27:02;74.60;;;59.88;;
25511;SDS011;13414;44.534;18.700;2023-07-31T09:29:29;4.32;;;2.83;;
25511;SDS011;13414;44.534;18.700;2023-07-31T09:31:57;6.47;;;2.95;;
25511;SDS011;13414;44.534;18.700;2023-07-31T09:34:29;18.17;;;13.15;;
25511;SDS011;13414;44.534;18.700;2023-07-31T09:37:05;5.95;;;4.85;;
25511;SDS011;13414;44.534;18.700;2023-07-31T09:39:32;4.93;;;2.53;;
25511;SDS011;13414;44.534;18.700;2023-07-31T09:42:25;4.07;;;2.20;;
25511;SDS011;13414;44.534;18.700;2023-07-31T09:44:54;5.50;;;3.58;;
25511;SDS011;13414;44.534;18.700;2023-07-31T09:47:33;2.80;;;2.10;;
25511;SDS011;13414;44.534;18.700;2023-07-31T09:50:00;3.75;;;2.33;;
25511;SDS011;13414;44.534;18.700;2023-07-31T09:52:28;5.22;;;2.28;;
25511;SDS011;13414;44.534;18.700;2023-07-31T09:54:55;3.60;;;2.13;;
25511;SDS011;13414;44.534;18.700;2023-07-31T09:57:24;4.10;;;2.45;;
25511;SDS011;13414;44.534;18.700;2023-07-31T09:59:52;2.45;;;1.75;;
25511;SDS011;13414;44.534;18.700;2023-07-31T10:02:21;4.32;;;2.60;;
25511;SDS011;13414;44.534;18.700;2023-07-31T10:04:49;1.80;;;1.40;;
25511;SDS011;13414;44.534;18.700;2023-07-31T10:07:17;4.22;;;2.15;;
25511;SDS011;13414;44.534;18.700;2023-07-31T10:09:47;3.47;;;2.22;;
25511;SDS011;13414;44.534;18.700;2023-07-31T10:12:16;2.92;;;1.80;;
25511;SDS011;13414;44.534;18.700;2023-07-31T10:14:49;5.93;;;3.97;;
25511;SDS011;13414;44.534;18.700;2023-07-31T10:17:19;3.50;;;1.95;;
25511;SDS011;13414;44.534;18.700;2023-07-31T10:19:47;3.92;;;1.98;;
25511;SDS011;13414;44.534;18.700;2023-07-31T10:22:16;4.47;;;2.15;;
25511;SDS011;13414;44.534;18.700;2023-07-31T10:24:45;3.58;;;2.15;;
25511;SDS011;13414;44.534;18.700;2023-07-31T10:27:17;5.10;;;2.30;;
25511;SDS011;13414;44.534;18.700;2023-07-31T10:29:44;3.17;;;2.00;;
25511;SDS011;13414;44.534;18.700;2023-07-31T10:32:16;5.07;;;2.13;;
25511;SDS011;13414;44.534;18.700;2023-07-31T10:34:44;3.08;;;1.90;;
25511;SDS011;13414;44.534;18.700;2023-07-31T10:37:19;3.45;;;2.08;;
25511;SDS011;13414;44.534;18.700;2023-07-31T10:39:59;5.07;;;3.55;;
25511;SDS011;13414;44.534;18.700;2023-07-31T10:42:31;4.90;;;2.65;;
25511;SDS011;13414;44.534;18.700;2023-07-31T10:45:00;4.57;;;3.65;;
25511;SDS011;13414;44.534;18.700;2023-07-31T10:47:31;3.75;;;2.50;;
25511;SDS011;13414;44.534;18.700;2023-07-31T10:50:13;4.60;;;3.03;;
25511;SDS011;13414;44.534;18.700;2023-07-31T10:52:44;3.42;;;2.42;;
25511;SDS011;13414;44.534;18.700;2023-07-31T10:55:24;4.00;;;2.42;;
25511;SDS011;13414;44.534;18.700;2023-07-31T10:57:56;4.15;;;2.38;;
25511;SDS011;13414;44.534;18.700;2023-07-31T11:00:31;5.50;;;3.88;;
25511;SDS011;13414;44.534;18.700;2023-07-31T11:03:00;2.90;;;2.08;;
25511;SDS011;13414;44.534;18.700;2023-07-31T11:08:19;4.22;;;2.40;;
25511;SDS011;13414;44.534;18.700;2023-07-31T11:10:49;5.80;;;3.10;;
25511;SDS011;13414;44.534;18.700;2023-07-31T11:13:18;5.88;;;3.85;;
25511;SDS011;13414;44.534;18.700;2023-07-31T11:15:45;3.20;;;1.98;;
25511;SDS011;13414;44.534;18.700;2023-07-31T11:18:15;3.10;;;2.00;;
25511;SDS011;13414;44.534;18.700;2023-07-31T11:20:44;5.68;;;2.42;;
25511;SDS011;13414;44.534;18.700;2023-07-31T11:23:11;6.45;;;2.13;;
25511;SDS011;13414;44.534;18.700;2023-07-31T11:25:39;5.28;;;4.28;;
25511;SDS011;13414;44.534;18.700;2023-07-31T11:28:08;6.13;;;3.50;;
25511;SDS011;13414;44.534;18.700;2023-07-31T11:30:37;3.50;;;2.40;;
25511;SDS011;13414;44.534;18.700;2023-07-31T11:33:06;4.18;;;2.70;;
25511;SDS011;13414;44.534;18.700;2023-07-31T11:35:40;3.53;;;2.10;;
25511;SDS011;13414;44.534;18.700;2023-07-31T11:38:27;3.55;;;2.35;;
25511;SDS011;13414;44.534;18.700;2023-07-31T11:40:59;2.90;;;2.08;;
25511;SDS011;13414;44.534;18.700;2023-07-31T11:43:58;3.55;;;2.30;;
25511;SDS011;13414;44.534;18.700;2023-07-31T11:46:27;4.40;;;2.20;;
25511;SDS011;13414;44.534;18.700;2023-07-31T11:49:05;5.00;;;2.58;;
25511;SDS011;13414;44.534;18.700;2023-07-31T11:51:34;4.20;;;2.13;;
25511;SDS011;13414;44.534;18.700;2023-07-31T11:54:02;5.57;;;2.30;;
25511;SDS011;13414;44.534;18.700;2023-07-31T11:56:40;3.50;;;2.13;;
25511;SDS011;13414;44.534;18.700;2023-07-31T11:59:08;61.83;;;46.90;;
25511;SDS011;13414;44.534;18.700;2023-07-31T12:01:37;195.88;;;158.45;;
25511;SDS011;13414;44.534;18.700;2023-07-31T12:04:05;21.85;;;16.63;;
25511;SDS011;13414;44.534;18.700;2023-07-31T12:06:34;6.55;;;5.30;;
25511;SDS011;13414;44.534;18.700;2023-07-31T12:09:03;5.43;;;3.20;;
25511;SDS011;13414;44.534;18.700;2023-07-31T12:11:30;9.23;;;7.32;;
25511;SDS011;13414;44.534;18.700;2023-07-31T12:13:58;3.20;;;2.08;;
25511;SDS011;13414;44.534;18.700;2023-07-31T12:16:26;5.55;;;3.63;;
25511;SDS011;13414;44.534;18.700;2023-07-31T12:18:54;3.00;;;2.08;;
25511;SDS011;13414;44.534;18.700;2023-07-31T12:21:22;3.88;;;2.42;;
25511;SDS011;13414;44.534;18.700;2023-07-31T12:23:51;6.07;;;4.15;;
25511;SDS011;13414;44.534;18.700;2023-07-31T12:26:19;4.32;;;3.55;;
25511;SDS011;13414;44.534;18.700;2023-07-31T12:28:49;4.35;;;2.20;;
25511;SDS011;13414;44.534;18.700;2023-07-31T12:31:18;6.03;;;2.53;;
25511;SDS011;13414;44.534;18.700;2023-07-31T12:33:48;6.07;;;3.58;;
25511;SDS011;13414;44.534;18.700;2023-07-31T12:36:17;4.88;;;2.70;;
25511;SDS011;13414;44.534;18.700;2023-07-31T12:38:46;3.95;;;2.70;;
25511;SDS011;13414;44.534;18.700;2023-07-31T12:41:15;5.22;;;2.90;;
25511;SDS011;13414;44.534;18.700;2023-07-31T12:43:43;5.45;;;3.33;;
25511;SDS011;13414;44.534;18.700;2023-07-31T12:46:11;5.05;;;2.47;;
25511;SDS011;13414;44.534;18.700;2023-07-31T12:48:40;3.90;;;3.50;;
25511;SDS011;13414;44.534;18.700;2023-07-31T12:51:07;4.03;;;2.88;;
25511;SDS011;13414;44.534;18.700;2023-07-31T12:53:35;5.43;;;3.30;;
25511;SDS011;13414;44.534;18.700;2023-07-31T12:56:03;2.50;;;1.90;;
25511;SDS011;13414;44.534;18.700;2023-07-31T12:58:32;3.85;;;2.17;;
25511;SDS011;13414;44.534;18.700;2023-07-31T13:00:59;4.90;;;3.13;;
25511;SDS011;13414;44.534;18.700;2023-07-31T13:03:27;5.05;;;2.50;;
25511;SDS011;13414;44.534;18.700;2023-07-31T13:05:55;4.07;;;2.08;;
25511;SDS011;13414;44.534;18.700;2023-07-31T13:08:22;4.22;;;2.28;;
25511;SDS011;13414;44.534;18.700;2023-07-31T13:10:50;3.95;;;2.50;;
25511;SDS011;13414;44.534;18.700;2023-07-31T13:13:17;4.25;;;2.95;;
25511;SDS011;13414;44.534;18.700;2023-07-31T13:15:46;6.80;;;3.88;;
25511;SDS011;13414;44.534;18.700;2023-07-31T13:20:44;4.05;;;2.85;;
25511;SDS011;13414;44.534;18.700;2023-07-31T13:23:12;4.70;;;3.63;;
25511;SDS011;13414;44.534;18.700;2023-07-31T13:25:39;4.32;;;2.38;;
25511;SDS011;13414;44.534;18.700;2023-07-31T13:28:07;3.50;;;2.60;;
25511;SDS011;13414;44.534;18.700;2023-07-31T13:30:34;4.30;;;2.75;;
25511;SDS011;13414;44.534;18.700;2023-07-31T13:33:03;4.38;;;2.42;;
25511;SDS011;13414;44.534;18.700;2023-07-31T13:35:31;5.13;;;2.47;;
25511;SDS011;13414;44.534;18.700;2023-07-31T13:37:58;3.38;;;2.30;;
25511;SDS011;13414;44.534;18.700;2023-07-31T13:40:26;3.10;;;2.08;;
25511;SDS011;13414;44.534;18.700;2023-07-31T13:42:53;4.35;;;2.95;;
25511;SDS011;13414;44.534;18.700;2023-07-31T13:45:21;3.05;;;2.00;;
25511;SDS011;13414;44.534;18.700;2023-07-31T13:47:49;4.03;;;2.20;;
25511;SDS011;13414;44.534;18.700;2023-07-31T13:50:18;5.15;;;2.60;;
25511;SDS011;13414;44.534;18.700;2023-07-31T13:52:48;3.28;;;2.28;;
25511;SDS011;13414;44.534;18.700;2023-07-31T13:55:15;3.13;;;2.45;;
25511;SDS011;13414;44.534;18.700;2023-07-31T13:57:45;3.75;;;2.20;;
25511;SDS011;13414;44.534;18.700;2023-07-31T14:00:13;4.50;;;2.13;;
25511;SDS011;13414;44.534;18.700;2023-07-31T14:02:41;3.47;;;2.00;;
25511;SDS011;13414;44.534;18.700;2023-07-31T14:05:08;4.60;;;2.30;;
25511;SDS011;13414;44.534;18.700;2023-07-31T14:07:37;5.03;;;4.45;;
25511;SDS011;13414;44.534;18.700;2023-07-31T14:10:06;5.93;;;2.80;;
25511;SDS011;13414;44.534;18.700;2023-07-31T14:12:33;4.82;;;3.67;;
25511;SDS011;13414;44.534;18.700;2023-07-31T14:15:02;7.05;;;3.53;;
25511;SDS011;13414;44.534;18.700;2023-07-31T14:17:31;4.20;;;3.20;;
25511;SDS011;13414;44.534;18.700;2023-07-31T14:19:59;3.65;;;2.53;;
25511;SDS011;13414;44.534;18.700;2023-07-31T14:22:29;6.78;;;2.50;;
25511;SDS011;13414;44.534;18.700;2023-07-31T14:25:00;4.40;;;2.58;;
25511;SDS011;13414;44.534;18.700;2023-07-31T14:27:28;3.83;;;2.47;;
25511;SDS011;13414;44.534;18.700;2023-07-31T14:29:55;6.22;;;4.20;;
25511;SDS011;13414;44.534;18.700;2023-07-31T14:32:23;4.47;;;2.28;;
25511;SDS011;13414;44.534;18.700;2023-07-31T14:34:52;3.38;;;2.03;;
25511;SDS011;13414;44.534;18.700;2023-07-31T14:37:19;3.00;;;2.15;;
25511;SDS011;13414;44.534;18.700;2023-07-31T14:39:47;4.03;;;2.50;;
25511;SDS011;13414;44.534;18.700;2023-07-31T14:42:16;4.75;;;2.63;;